createdAt,value
2023-01-09T00:00:14.518Z,34.07
2023-01-09T00:01:21.160Z,32.56
2023-01-09T00:02:24.342Z,32.44
2023-01-09T00:03:27.451Z,31.54
2023-01-09T00:04:30.711Z,30.41
2023-01-09T00:05:33.742Z,30.94
2023-01-09T00:06:36.885Z,30.22
2023-01-09T00:07:39.847Z,30.45
2023-01-09T00:08:42.851Z,30.47
2023-01-09T00:09:45.764Z,31.56
2023-01-09T00:10:49.891Z,29.80
2023-01-09T00:11:54.443Z,29.46
2023-01-09T00:12:57.408Z,27.98
2023-01-09T00:14:00.358Z,28.98
2023-01-09T00:15:04.795Z,29.50
2023-01-09T00:16:08.862Z,29.24
2023-01-09T00:17:11.938Z,29.73
2023-01-09T00:18:14.870Z,29.25
2023-01-09T00:19:17.901Z,31.34
2023-01-09T00:20:21.337Z,31.48
2023-01-09T00:21:24.258Z,32.39
2023-01-09T00:22:27.176Z,30.80
2023-01-09T00:23:30.327Z,31.66
2023-01-09T00:24:33.273Z,29.89
2023-01-09T00:25:36.426Z,30.11
2023-01-09T00:26:39.825Z,29.79
2023-01-09T00:27:43.250Z,29.48
2023-01-09T00:28:48.306Z,30.83
2023-01-09T00:29:52.179Z,31.58
2023-01-09T00:30:56.975Z,32.29
2023-01-09T00:31:59.913Z,31.97
2023-01-09T00:33:02.992Z,31.78
2023-01-09T00:34:09.540Z,33.31
2023-01-09T00:35:15.805Z,34.15
2023-01-09T00:36:19.097Z,33.07
2023-01-09T00:37:22.535Z,33.23
2023-01-09T00:38:25.675Z,32.17
2023-01-09T00:39:28.916Z,34.58
2023-01-09T00:40:32.052Z,36.73
2023-01-09T00:41:44.483Z,37.74
2023-01-09T00:42:51.215Z,38.39
2023-01-09T00:43:57.774Z,37.52
2023-01-09T00:45:04.131Z,37.51
2023-01-09T00:46:08.138Z,35.57
2023-01-09T00:47:19.947Z,37.11
2023-01-09T00:48:26.716Z,39.00
2023-01-09T00:49:32.328Z,35.67
2023-01-09T00:50:36.116Z,40.82
2023-01-09T00:51:41.171Z,39.02
2023-01-09T00:52:45.960Z,39.64
2023-01-09T00:53:50.418Z,38.97
2023-01-09T00:54:53.599Z,40.10
2023-01-09T00:56:00.133Z,38.87
2023-01-09T00:57:03.568Z,37.49
2023-01-09T00:58:06.815Z,36.73
2023-01-09T00:59:09.780Z,35.42
2023-01-09T01:00:13.825Z,37.69
2023-01-09T01:01:16.937Z,39.55
2023-01-09T01:02:20.410Z,39.30
2023-01-09T01:03:23.392Z,36.96
2023-01-09T01:04:44.664Z,36.26
2023-01-09T01:06:06.091Z,34.33
2023-01-09T01:07:27.610Z,34.65
2023-01-09T01:08:30.598Z,32.93
2023-01-09T01:09:33.551Z,32.17
2023-01-09T01:10:36.904Z,34.99
2023-01-09T01:11:39.764Z,34.33
2023-01-09T01:12:43.884Z,33.65
2023-01-09T01:13:46.846Z,34.86
2023-01-09T01:14:49.763Z,35.36
2023-01-09T01:15:52.804Z,34.18
2023-01-09T01:16:55.922Z,35.07
2023-01-09T01:17:58.787Z,35.04
2023-01-09T01:19:02.141Z,35.72
2023-01-09T01:20:07.585Z,36.47
2023-01-09T01:21:12.267Z,36.77
2023-01-09T01:22:15.204Z,37.50
2023-01-09T01:23:18.162Z,38.03
2023-01-09T01:24:21.136Z,38.76
2023-01-09T01:25:24.366Z,40.09
2023-01-09T01:26:27.286Z,40.16
2023-01-09T01:27:30.214Z,37.41
2023-01-09T01:28:33.438Z,39.37
2023-01-09T01:29:36.579Z,38.25
2023-01-09T01:30:41.064Z,36.26
2023-01-09T01:31:43.972Z,37.06
2023-01-09T01:32:47.249Z,37.85
2023-01-09T01:33:50.200Z,37.64
2023-01-09T01:34:53.173Z,37.19
2023-01-09T01:36:07.877Z,36.71
2023-01-09T01:37:10.862Z,36.22
2023-01-09T01:38:13.902Z,35.95
2023-01-09T01:39:17.045Z,34.82
2023-01-09T01:40:20.356Z,42.54
2023-01-09T01:41:29.942Z,39.12
2023-01-09T01:42:33.235Z,35.44
2023-01-09T01:43:57.939Z,35.20
2023-01-09T01:45:16.290Z,32.71
2023-01-09T01:46:20.245Z,35.21
2023-01-09T01:47:26.702Z,34.02
2023-01-09T01:48:30.300Z,34.92
2023-01-09T01:49:33.432Z,35.52
2023-01-09T01:50:46.114Z,34.99
2023-01-09T01:51:52.637Z,34.27
2023-01-09T01:53:04.659Z,37.27
2023-01-09T01:54:11.168Z,38.04
2023-01-09T01:55:16.130Z,40.65
2023-01-09T01:56:25.902Z,39.27
2023-01-09T01:57:30.445Z,42.59
2023-01-09T01:58:36.868Z,47.41
2023-01-09T01:59:48.437Z,55.91
2023-01-09T02:00:51.880Z,62.24
2023-01-09T02:01:58.589Z,66.14
2023-01-09T02:03:02.572Z,62.27
2023-01-09T02:04:05.606Z,60.26
2023-01-09T02:05:09.058Z,55.06
2023-01-09T02:06:13.309Z,49.69
2023-01-09T02:07:16.268Z,50.71
2023-01-09T02:08:20.019Z,44.37
2023-01-09T02:09:24.681Z,37.24
2023-01-09T02:10:28.147Z,36.91
2023-01-09T02:11:31.530Z,34.58
2023-01-09T02:12:34.542Z,34.58
2023-01-09T02:13:39.886Z,35.76
2023-01-09T02:14:44.906Z,35.37
2023-01-09T02:15:57.645Z,33.22
2023-01-09T02:17:04.298Z,31.61
2023-01-09T02:18:13.793Z,29.92
2023-01-09T02:19:23.180Z,27.61
2023-01-09T02:20:44.706Z,29.71
2023-01-09T02:22:08.173Z,28.42
2023-01-09T02:23:32.687Z,29.17
2023-01-09T02:24:45.291Z,26.77
2023-01-09T02:26:08.752Z,26.64
2023-01-09T02:27:27.269Z,28.01
2023-01-09T02:28:36.764Z,26.88
2023-01-09T02:30:14.960Z,28.02
2023-01-09T02:31:37.211Z,25.97
2023-01-09T02:32:44.159Z,25.14
2023-01-09T02:34:11.430Z,25.27
2023-01-09T02:35:17.957Z,24.14
2023-01-09T02:36:36.411Z,24.21
2023-01-09T02:38:03.940Z,23.97
2023-01-09T02:39:13.509Z,22.67
2023-01-09T02:41:34.554Z,22.41
2023-01-09T02:42:40.583Z,23.04
2023-01-09T02:43:43.680Z,22.98
2023-01-09T02:44:46.700Z,24.01
2023-01-09T02:45:49.804Z,26.05
2023-01-09T02:47:08.012Z,23.40
2023-01-09T02:48:11.593Z,24.44
2023-01-09T02:49:16.519Z,24.99
2023-01-09T02:50:26.419Z,24.91
2023-01-09T02:51:38.453Z,24.32
2023-01-09T02:52:44.976Z,23.88
2023-01-09T02:53:54.722Z,25.49
2023-01-09T02:55:04.333Z,26.65
2023-01-09T02:56:16.948Z,26.18
2023-01-09T02:57:35.684Z,25.51
2023-01-09T02:58:46.326Z,25.45
2023-01-09T03:00:16.963Z,25.00
2023-01-09T03:01:26.680Z,24.46
2023-01-09T03:02:34.011Z,24.63
2023-01-09T03:04:01.837Z,25.58
2023-01-09T03:05:24.749Z,27.08
2023-01-09T03:06:39.979Z,27.90
2023-01-09T03:07:49.577Z,28.03
2023-01-09T03:08:56.859Z,29.14
2023-01-09T03:10:09.502Z,29.94
2023-01-09T03:11:12.410Z,29.42
2023-01-09T03:12:19.008Z,27.74
2023-01-09T03:13:24.386Z,26.70
2023-01-09T03:14:30.998Z,29.88
2023-01-09T03:15:36.581Z,30.67
2023-01-09T03:16:41.857Z,30.79
2023-01-09T03:17:48.072Z,30.17
2023-01-09T03:18:52.457Z,31.89
2023-01-09T03:19:57.533Z,31.38
2023-01-09T03:21:01.898Z,32.28
2023-01-09T03:22:07.160Z,32.17
2023-01-09T03:23:10.221Z,33.95
2023-01-09T03:24:13.177Z,40.94
2023-01-09T03:25:17.724Z,55.16
2023-01-09T03:26:21.358Z,55.48
2023-01-09T03:27:24.598Z,51.43
2023-01-09T03:28:30.336Z,40.69
2023-01-09T03:29:33.405Z,34.93
2023-01-09T03:30:37.037Z,33.53
2023-01-09T03:31:40.053Z,32.64
2023-01-09T03:32:43.149Z,31.77
2023-01-09T03:33:46.026Z,31.25
2023-01-09T03:34:48.984Z,31.52
2023-01-09T03:35:51.934Z,31.01
2023-01-09T03:36:54.991Z,29.59
2023-01-09T03:37:58.651Z,29.64
2023-01-09T03:39:01.590Z,28.14
2023-01-09T03:40:05.500Z,28.74
2023-01-09T03:41:08.553Z,28.31
2023-01-09T03:42:11.493Z,27.61
2023-01-09T03:43:14.617Z,27.17
2023-01-09T03:44:17.694Z,27.52
2023-01-09T03:45:20.771Z,27.87
2023-01-09T03:46:23.874Z,27.98
2023-01-09T03:47:27.103Z,27.81
2023-01-09T03:48:30.135Z,28.28
2023-01-09T03:49:33.069Z,28.84
2023-01-09T03:50:36.312Z,27.01
2023-01-09T03:51:39.259Z,26.79
2023-01-09T03:52:42.295Z,27.34
2023-01-09T03:53:45.323Z,27.84
2023-01-09T03:54:48.262Z,26.28
2023-01-09T03:55:53.601Z,26.04
2023-01-09T03:56:56.583Z,25.50
2023-01-09T03:57:59.608Z,26.77
2023-01-09T03:59:02.534Z,25.58
2023-01-09T04:00:07.941Z,26.65
2023-01-09T04:01:13.161Z,25.11
2023-01-09T04:02:16.636Z,24.61
2023-01-09T04:03:20.704Z,26.26
2023-01-09T04:04:23.635Z,27.38
2023-01-09T04:05:26.661Z,26.34
2023-01-09T04:06:29.820Z,26.64
2023-01-09T04:07:32.832Z,27.66
2023-01-09T04:08:35.764Z,28.21
2023-01-09T04:09:38.683Z,27.37
2023-01-09T04:10:44.182Z,25.88
2023-01-09T04:11:47.454Z,25.92
2023-01-09T04:12:50.380Z,27.17
2023-01-09T04:13:53.305Z,27.26
2023-01-09T04:14:56.568Z,26.14
2023-01-09T04:15:59.680Z,27.10
2023-01-09T04:17:02.653Z,27.84
2023-01-09T04:18:05.587Z,27.81
2023-01-09T04:19:08.506Z,27.35
2023-01-09T04:20:12.789Z,26.38
2023-01-09T04:21:15.735Z,26.26
2023-01-09T04:22:18.697Z,26.47
2023-01-09T04:23:21.610Z,25.69
2023-01-09T04:24:24.528Z,26.73
2023-01-09T04:25:27.600Z,26.49
2023-01-09T04:26:30.532Z,25.49
2023-01-09T04:27:34.940Z,24.18
2023-01-09T04:28:37.993Z,25.23
2023-01-09T04:29:40.939Z,24.94
2023-01-09T04:30:44.267Z,26.56
2023-01-09T04:31:47.286Z,26.74
2023-01-09T04:32:51.491Z,26.64
2023-01-09T04:33:54.481Z,26.38
2023-01-09T04:34:57.516Z,25.70
2023-01-09T04:36:00.475Z,25.56
2023-01-09T04:37:03.677Z,26.20
2023-01-09T04:38:06.724Z,26.18
2023-01-09T04:39:09.869Z,26.14
2023-01-09T04:40:13.720Z,25.57
2023-01-09T04:41:18.540Z,27.07
2023-01-09T04:42:21.702Z,26.12
2023-01-09T04:43:24.750Z,27.59
2023-01-09T04:44:27.718Z,26.62
2023-01-09T04:45:30.809Z,26.71
2023-01-09T04:46:34.017Z,26.37
2023-01-09T04:47:37.267Z,27.32
2023-01-09T04:48:40.211Z,27.35
2023-01-09T04:49:43.258Z,27.87
2023-01-09T04:50:46.189Z,26.36
2023-01-09T04:51:49.240Z,27.06
2023-01-09T04:52:52.190Z,27.37
2023-01-09T04:53:55.127Z,28.62
2023-01-09T04:54:58.182Z,27.51
2023-01-09T04:56:01.647Z,27.57
2023-01-09T04:57:04.621Z,28.03
2023-01-09T04:58:07.652Z,27.42
2023-01-09T04:59:10.702Z,26.77
2023-01-09T05:00:14.579Z,27.75
2023-01-09T05:01:17.722Z,27.94
2023-01-09T05:02:20.894Z,27.01
2023-01-09T05:03:23.913Z,28.36
2023-01-09T05:04:27.077Z,29.21
2023-01-09T05:05:30.235Z,27.56
2023-01-09T05:06:33.802Z,28.98
2023-01-09T05:07:36.844Z,28.94
2023-01-09T05:08:39.904Z,29.08
2023-01-09T05:09:44.148Z,27.97
2023-01-09T05:10:47.418Z,27.36
2023-01-09T05:11:50.842Z,28.62
2023-01-09T05:12:53.767Z,27.98
2023-01-09T05:13:56.629Z,28.19
2023-01-09T05:14:59.767Z,28.57
2023-01-09T05:16:02.751Z,28.83
2023-01-09T05:17:05.677Z,29.00
2023-01-09T05:18:08.588Z,29.64
2023-01-09T05:19:11.776Z,27.99
2023-01-09T05:20:15.170Z,29.26
2023-01-09T05:21:18.226Z,29.89
2023-01-09T05:22:21.365Z,29.91
2023-01-09T05:23:24.292Z,28.18
2023-01-09T05:24:27.310Z,31.34
2023-01-09T05:25:30.266Z,30.91
2023-01-09T05:26:33.503Z,31.01
2023-01-09T05:27:36.522Z,30.57
2023-01-09T05:28:39.504Z,31.23
2023-01-09T05:29:42.457Z,30.74
2023-01-09T05:30:46.878Z,30.21
2023-01-09T05:31:49.942Z,28.58
2023-01-09T05:32:52.934Z,29.73
2023-01-09T05:33:57.595Z,29.48
2023-01-09T05:35:00.584Z,29.21
2023-01-09T05:36:03.845Z,30.99
2023-01-09T05:37:06.989Z,31.56
2023-01-09T05:38:11.025Z,29.88
2023-01-09T05:39:13.987Z,29.73
2023-01-09T05:40:17.552Z,28.66
2023-01-09T05:41:21.366Z,31.31
2023-01-09T05:42:25.284Z,28.96
2023-01-09T05:43:28.291Z,28.89
2023-01-09T05:44:31.223Z,30.79
2023-01-09T05:45:34.840Z,31.56
2023-01-09T05:46:37.909Z,31.23
2023-01-09T05:47:41.280Z,32.56
2023-01-09T05:48:44.642Z,34.11
2023-01-09T05:49:47.771Z,30.72
2023-01-09T05:50:50.812Z,31.51
2023-01-09T05:51:53.842Z,30.02
2023-01-09T05:52:56.779Z,32.63
2023-01-09T05:53:59.979Z,32.67
2023-01-09T05:55:03.192Z,34.78
2023-01-09T05:56:06.680Z,32.31
2023-01-09T05:57:09.867Z,31.68
2023-01-09T05:58:13.042Z,31.47
2023-01-09T05:59:16.224Z,33.23
2023-01-09T06:00:19.840Z,32.35
2023-01-09T06:01:23.837Z,33.07
2023-01-09T06:02:27.195Z,34.74
2023-01-09T06:03:30.114Z,33.87
2023-01-09T06:04:33.153Z,34.73
2023-01-09T06:05:36.104Z,37.16
2023-01-09T06:06:40.345Z,40.07
2023-01-09T06:07:43.506Z,35.18
2023-01-09T06:08:46.447Z,34.55
2023-01-09T06:09:49.806Z,37.98
2023-01-09T06:10:52.854Z,36.68
2023-01-09T06:11:56.477Z,36.88
2023-01-09T06:12:59.525Z,38.74
2023-01-09T06:14:02.484Z,37.48
2023-01-09T06:15:08.664Z,39.14
2023-01-09T06:16:13.130Z,41.77
2023-01-09T06:17:16.081Z,41.12
2023-01-09T06:18:19.521Z,40.74
2023-01-09T06:19:22.472Z,41.39
2023-01-09T06:25:26.919Z,33.06
2023-01-09T06:26:29.846Z,33.00
2023-01-09T06:27:32.923Z,32.46
2023-01-09T06:28:35.858Z,32.02
2023-01-09T06:29:39.585Z,33.71
2023-01-09T06:30:42.588Z,32.22
2023-01-09T06:31:45.651Z,35.46
2023-01-09T06:32:49.480Z,34.46
2023-01-09T06:33:52.679Z,36.11
2023-01-09T06:34:55.632Z,34.21
2023-01-09T06:35:58.701Z,35.62
2023-01-09T06:37:02.198Z,33.39
2023-01-09T06:38:05.667Z,36.49
2023-01-09T06:39:09.100Z,36.99
2023-01-09T06:40:13.479Z,36.96
2023-01-09T06:41:16.730Z,38.06
2023-01-09T06:42:20.002Z,40.69
2023-01-09T06:43:23.375Z,40.56
2023-01-09T06:44:26.416Z,41.43
2023-01-09T06:45:29.556Z,42.10
2023-01-09T06:46:32.615Z,42.28
2023-01-09T06:47:35.531Z,42.13
2023-01-09T06:48:38.958Z,42.05
2023-01-09T06:49:41.839Z,42.34
2023-01-09T06:50:45.877Z,41.85
2023-01-09T06:51:50.588Z,38.29
2023-01-09T06:52:53.730Z,38.61
2023-01-09T06:53:56.760Z,41.09
2023-01-09T06:55:00.119Z,38.02
2023-01-09T06:56:03.509Z,34.07
2023-01-09T06:57:06.840Z,35.26
2023-01-09T06:58:09.854Z,36.36
2023-01-09T06:59:12.974Z,36.65
2023-01-09T07:00:16.787Z,38.96
2023-01-09T07:01:19.996Z,38.44
2023-01-09T07:02:23.368Z,37.21
2023-01-09T07:03:26.283Z,38.19
2023-01-09T07:04:29.393Z,35.14
2023-01-09T07:05:35.925Z,34.03
2023-01-09T07:06:39.190Z,34.09
2023-01-09T07:07:42.441Z,32.56
2023-01-09T07:08:47.776Z,31.35
2023-01-09T07:09:50.335Z,29.76
2023-01-09T07:10:53.622Z,29.92
2023-01-09T07:11:56.586Z,29.66
2023-01-09T07:12:59.400Z,29.26
2023-01-09T07:14:02.451Z,30.99
2023-01-09T07:15:06.042Z,30.69
2023-01-09T07:16:09.593Z,29.91
2023-01-09T07:17:13.172Z,30.74
2023-01-09T07:18:16.325Z,29.47
2023-01-09T07:19:19.364Z,29.06
2023-01-09T07:20:23.316Z,32.86
2023-01-09T07:21:27.189Z,31.74
2023-01-09T07:22:30.124Z,29.95
2023-01-09T07:23:33.976Z,30.12
2023-01-09T07:24:36.915Z,30.46
2023-01-09T07:25:41.984Z,30.99
2023-01-09T07:26:45.283Z,30.79
2023-01-09T07:27:48.238Z,29.17
2023-01-09T07:28:51.301Z,31.26
2023-01-09T07:29:54.256Z,30.19
2023-01-09T07:31:01.160Z,28.84
2023-01-09T07:32:04.478Z,28.09
2023-01-09T07:33:07.522Z,29.69
2023-01-09T07:34:10.569Z,29.41
2023-01-09T07:35:13.510Z,31.50
2023-01-09T07:36:17.178Z,31.44
2023-01-09T07:37:20.116Z,29.93
2023-01-09T07:38:23.150Z,32.51
2023-01-09T07:39:26.769Z,32.24
2023-01-09T07:40:30.022Z,33.78
2023-01-09T07:41:33.082Z,33.34
2023-01-09T07:42:36.146Z,33.45
2023-01-09T07:43:39.498Z,32.28
2023-01-09T07:44:42.552Z,30.93
2023-01-09T07:45:46.030Z,31.38
2023-01-09T07:46:49.288Z,29.74
2023-01-09T07:47:52.347Z,32.11
2023-01-09T07:48:55.516Z,29.92
2023-01-09T07:49:58.569Z,29.54
2023-01-09T07:51:01.722Z,30.96
2023-01-09T07:52:04.683Z,30.87
2023-01-09T07:53:07.732Z,30.89
2023-01-09T07:54:12.949Z,29.16
2023-01-09T07:55:17.441Z,30.63
2023-01-09T07:56:21.639Z,28.29
2023-01-09T07:57:24.600Z,29.54
2023-01-09T07:58:27.537Z,29.91
2023-01-09T07:59:30.479Z,29.09
2023-01-09T08:00:33.581Z,27.88
2023-01-09T08:01:36.738Z,27.81
2023-01-09T08:02:39.768Z,27.26
2023-01-09T08:03:42.674Z,29.20
2023-01-09T08:04:45.787Z,27.78
2023-01-09T08:05:51.296Z,27.16
2023-01-09T08:06:53.518Z,28.19
2023-01-09T08:07:56.459Z,28.46
2023-01-09T08:08:59.604Z,28.24
2023-01-09T08:10:02.664Z,26.24
2023-01-09T08:11:05.699Z,28.41
2023-01-09T08:12:08.787Z,27.86
2023-01-09T08:13:11.918Z,29.30
2023-01-09T08:14:14.954Z,27.36
2023-01-09T08:15:18.122Z,27.24
2023-01-09T08:16:21.142Z,26.73
2023-01-09T08:17:26.430Z,27.24
2023-01-09T08:18:28.866Z,28.16
2023-01-09T08:19:31.803Z,28.53
2023-01-09T08:20:34.990Z,27.19
2023-01-09T08:21:39.035Z,27.87
2023-01-09T08:22:43.352Z,26.29
2023-01-09T08:23:46.468Z,27.57
2023-01-09T08:24:49.470Z,27.66
2023-01-09T13:32:03.070Z,8.79
2023-01-09T13:34:35.675Z,8.73
2023-01-09T13:35:53.987Z,8.68
2023-01-09T13:36:58.312Z,8.51
2023-01-09T13:38:01.400Z,7.62
2023-01-09T13:39:05.038Z,7.92
2023-01-09T13:40:26.447Z,7.35
2023-01-09T13:41:49.077Z,8.58
2023-01-09T13:43:04.926Z,9.39
2023-01-09T13:44:25.384Z,9.76
2023-01-09T13:45:31.979Z,10.74
2023-01-09T13:46:44.301Z,10.58
2023-01-09T13:47:49.561Z,11.30
2023-01-09T13:48:52.656Z,13.82
2023-01-09T13:50:10.683Z,16.07
2023-01-09T13:51:44.615Z,16.76
2023-01-09T13:52:47.486Z,17.93
2023-01-09T13:53:50.465Z,16.87
2023-01-09T13:55:00.037Z,15.58
2023-01-09T13:56:05.764Z,15.39
2023-01-09T13:57:21.130Z,16.89
2023-01-09T13:58:32.386Z,14.77
2023-01-09T13:59:35.275Z,15.26
2023-01-09T14:00:42.046Z,15.89
2023-01-09T14:01:46.915Z,16.14
2023-01-09T14:02:59.071Z,16.38
2023-01-09T14:04:13.377Z,16.52
2023-01-09T14:05:25.989Z,16.83
2023-01-09T14:06:29.339Z,16.18
2023-01-09T14:07:37.032Z,16.85
2023-01-09T14:08:41.493Z,17.40
2023-01-09T14:09:48.088Z,18.24
2023-01-09T14:11:01.083Z,18.38
2023-01-09T14:12:06.298Z,19.12
2023-01-09T14:13:15.562Z,19.18
2023-01-09T14:14:25.225Z,20.29
2023-01-09T14:15:31.779Z,22.09
2023-01-09T14:16:36.697Z,23.84
2023-01-09T14:17:39.815Z,22.30
2023-01-09T14:19:07.349Z,20.51
2023-01-09T14:20:13.956Z,20.58
2023-01-09T14:21:17.321Z,22.19
2023-01-09T14:22:29.440Z,20.18
2023-01-09T14:23:50.948Z,19.97
2023-01-09T14:24:45.637Z,18.78
2023-01-09T14:25:50.729Z,20.16
2023-01-09T14:26:59.486Z,19.81
2023-01-09T14:28:07.632Z,19.67
2023-01-09T14:29:33.773Z,20.11
2023-01-09T14:30:55.486Z,19.42
2023-01-09T16:52:35.887Z,14.44
2023-01-09T16:53:38.847Z,14.73
2023-01-09T16:54:43.263Z,15.13
2023-01-09T16:55:46.977Z,14.11
2023-01-09T16:56:53.008Z,14.03
2023-01-09T16:57:56.028Z,14.38
2023-01-09T16:58:59.088Z,14.94
2023-01-09T17:00:03.238Z,14.18
2023-01-09T17:01:06.609Z,15.00
2023-01-09T17:02:18.589Z,13.88
2023-01-09T17:03:22.036Z,14.48
2023-01-09T17:04:25.130Z,13.89
2023-01-09T17:05:28.115Z,14.03
2023-01-09T17:06:32.290Z,14.83
2023-01-09T17:07:37.330Z,14.04
2023-01-09T17:08:40.837Z,13.55
2023-01-09T17:09:45.290Z,14.16
2023-01-09T17:10:49.234Z,16.71
2023-01-09T17:11:52.323Z,18.03
2023-01-09T17:12:56.470Z,25.74
2023-01-09T17:14:01.363Z,26.29
2023-01-09T17:15:04.934Z,26.79
2023-01-09T17:16:10.649Z,26.83
2023-01-09T17:17:14.199Z,26.80
2023-01-09T17:18:22.935Z,26.92
2023-01-09T17:19:26.029Z,27.47
2023-01-09T17:20:30.001Z,25.06
2023-01-09T17:21:32.979Z,24.65
2023-01-09T17:22:36.072Z,24.66
2023-01-09T17:23:39.260Z,24.70
2023-01-09T17:25:00.405Z,25.65
2023-01-09T17:26:21.679Z,22.71
2023-01-09T17:27:50.030Z,22.49
2023-01-09T17:28:53.157Z,24.47
2023-01-09T17:29:56.243Z,23.96
2023-01-09T17:31:10.934Z,23.60
2023-01-09T17:32:17.898Z,23.17
2023-01-09T17:33:21.185Z,21.17
2023-01-09T17:34:24.415Z,17.19
2023-01-09T17:35:27.385Z,16.39
2023-01-09T17:36:33.964Z,20.49
2023-01-09T17:37:36.926Z,16.22
2023-01-09T17:38:39.998Z,17.04
2023-01-09T17:39:43.791Z,15.68
2023-01-09T17:40:46.859Z,15.62
2023-01-09T17:41:50.071Z,15.12
2023-01-09T17:42:53.169Z,13.48
2023-01-09T17:43:56.859Z,13.89
2023-01-09T17:44:59.907Z,14.52
2023-01-09T17:46:03.173Z,14.09
2023-01-09T17:47:06.728Z,14.54
2023-01-09T17:48:18.969Z,13.55
2023-01-09T17:49:22.971Z,14.26
2023-01-09T17:50:27.915Z,14.77
2023-01-09T17:51:31.006Z,14.51
2023-01-09T17:52:34.080Z,15.12
2023-01-09T17:53:37.046Z,14.41
2023-01-09T17:54:40.237Z,14.06
2023-01-09T17:55:43.315Z,14.27
2023-01-09T17:56:50.247Z,14.53
2023-01-09T17:57:53.511Z,14.62
2023-01-09T17:58:56.628Z,13.34
2023-01-09T17:59:59.713Z,15.99
2023-01-09T18:01:02.946Z,14.74
2023-01-09T18:02:06.552Z,16.07
2023-01-09T18:03:09.545Z,17.68
2023-01-09T18:04:12.559Z,17.61
2023-01-09T18:05:15.725Z,17.33
2023-01-09T18:06:21.002Z,18.97
2023-01-09T18:07:24.035Z,18.18
2023-01-09T18:08:27.229Z,16.77
2023-01-09T18:09:30.356Z,18.00
2023-01-09T18:10:33.378Z,16.89
2023-01-09T18:11:36.453Z,16.02
2023-01-09T18:12:39.532Z,15.13
2023-01-09T18:13:43.298Z,15.36
2023-01-09T18:14:47.833Z,15.32
2023-01-09T18:15:51.637Z,16.51
2023-01-09T18:16:55.069Z,15.75
2023-01-09T18:17:58.167Z,15.56
2023-01-09T18:19:01.416Z,15.64
2023-01-09T18:20:05.241Z,16.71
2023-01-09T18:21:08.930Z,15.38
2023-01-09T18:22:11.924Z,15.03
2023-01-09T18:23:15.857Z,16.58
2023-01-09T18:24:18.836Z,15.68
2023-01-09T18:25:21.837Z,15.76
2023-01-09T18:26:24.814Z,15.76
2023-01-09T18:27:28.217Z,15.02
2023-01-09T18:28:31.147Z,14.47
2023-01-09T18:29:34.062Z,14.16
2023-01-09T18:30:37.035Z,14.18
2023-01-09T18:31:40.130Z,14.46
2023-01-09T18:32:43.156Z,14.00
2023-01-09T18:33:46.235Z,14.81
2023-01-09T18:34:49.410Z,13.85
2023-01-09T18:35:52.576Z,13.64
2023-01-09T18:36:55.586Z,15.00
2023-01-09T18:37:58.482Z,14.72
2023-01-09T18:39:03.511Z,13.64
2023-01-09T18:40:07.576Z,14.72
2023-01-09T18:41:11.051Z,14.85
2023-01-09T18:42:14.177Z,14.79
2023-01-09T18:43:19.016Z,15.26
2023-01-09T18:44:22.883Z,15.42
2023-01-09T18:45:26.307Z,15.81
2023-01-09T18:46:31.249Z,15.34
2023-01-09T18:47:34.239Z,14.72
2023-01-09T18:48:37.279Z,15.21
2023-01-09T18:49:40.252Z,15.13
2023-01-09T18:50:45.063Z,14.80
2023-01-09T18:51:48.340Z,15.13
2023-01-09T18:52:51.482Z,14.04
2023-01-09T18:53:55.202Z,14.21
2023-01-09T18:54:58.302Z,15.21
2023-01-09T18:57:14.793Z,13.66
2023-01-09T18:58:17.730Z,13.50
2023-01-09T18:59:20.647Z,12.95
2023-01-09T19:00:23.930Z,13.01
2023-01-09T19:01:28.617Z,12.99
2023-01-09T19:02:31.714Z,12.61
2023-01-09T19:03:34.818Z,12.39
2023-01-09T19:04:37.819Z,12.64
2023-01-09T19:05:40.868Z,12.91
2023-01-09T19:06:44.107Z,12.43
2023-01-09T19:07:47.290Z,12.54
2023-01-09T19:08:50.320Z,11.58
2023-01-09T19:09:53.464Z,12.49
2023-01-09T19:10:57.257Z,12.56
2023-01-09T19:12:00.263Z,11.11
2023-01-09T19:13:03.433Z,11.78
2023-01-09T19:14:06.417Z,12.19
2023-01-09T19:15:11.078Z,12.31
2023-01-09T19:16:14.136Z,10.87
2023-01-09T19:17:17.341Z,12.46
2023-01-09T19:18:20.408Z,11.51
2023-01-09T19:19:23.441Z,11.72
2023-01-09T19:20:26.485Z,12.19
2023-01-09T19:21:29.346Z,12.66
2023-01-09T19:22:32.591Z,11.95
2023-01-09T19:23:35.665Z,11.18
2023-01-09T19:24:39.031Z,11.82
2023-01-09T19:25:42.201Z,11.11
2023-01-09T19:26:47.303Z,11.73
2023-01-09T19:27:52.184Z,12.04
2023-01-09T19:28:56.885Z,11.73
2023-01-09T19:29:59.988Z,11.21
2023-01-09T19:31:03.259Z,11.70
2023-01-09T19:32:07.913Z,11.65
2023-01-09T19:33:11.918Z,11.52
2023-01-09T19:34:15.510Z,11.76
2023-01-09T19:35:19.588Z,12.96
2023-01-09T19:36:22.613Z,12.59
2023-01-09T19:37:25.708Z,12.23
2023-01-09T19:38:28.885Z,12.16
2023-01-09T19:39:31.927Z,12.31
2023-01-09T19:40:35.983Z,12.33
2023-01-09T19:41:39.213Z,12.41
2023-01-09T19:42:42.322Z,11.00
2023-01-09T19:43:46.397Z,11.32
2023-01-09T19:44:49.486Z,11.06
2023-01-09T19:45:53.857Z,10.68
2023-01-09T19:46:57.211Z,11.46
2023-01-09T19:48:00.328Z,11.03
2023-01-09T19:49:04.509Z,10.99
2023-01-09T19:50:08.470Z,11.56
2023-01-09T19:51:13.127Z,12.01
2023-01-09T19:52:16.421Z,11.96
2023-01-09T19:53:19.619Z,11.61
2023-01-09T19:54:22.623Z,12.09
2023-01-09T19:55:25.589Z,12.20
2023-01-09T19:56:35.076Z,12.05
2023-01-09T19:57:38.059Z,11.17
2023-01-09T19:58:42.146Z,11.77
2023-01-09T19:59:45.244Z,11.67
2023-01-09T20:00:48.835Z,11.59
2023-01-09T20:01:52.031Z,12.88
2023-01-09T20:02:55.438Z,12.71
2023-01-09T20:04:04.285Z,12.18
2023-01-09T20:05:07.967Z,12.08
2023-01-09T20:06:16.064Z,12.11
2023-01-09T20:07:20.774Z,12.06
2023-01-09T20:08:24.004Z,11.97
2023-01-09T20:09:28.343Z,11.87
2023-01-09T20:10:31.630Z,12.44
2023-01-09T20:11:34.797Z,10.46
2023-01-09T20:12:37.902Z,11.66
2023-01-09T20:13:41.191Z,11.46
2023-01-09T20:14:44.664Z,9.71
2023-01-09T20:15:47.641Z,9.97
2023-01-09T20:16:52.667Z,10.11
2023-01-09T20:17:55.695Z,10.32
2023-01-09T20:19:03.369Z,10.78
2023-01-09T20:20:07.491Z,10.26
2023-01-09T20:21:10.686Z,11.11
2023-01-09T20:22:13.778Z,10.79
2023-01-09T20:23:21.548Z,10.63
2023-01-09T20:24:24.790Z,11.03
2023-01-09T20:25:28.499Z,11.55
2023-01-09T20:26:33.383Z,11.16
2023-01-09T20:27:36.596Z,11.74
2023-01-09T20:28:39.658Z,10.68
2023-01-09T20:29:43.912Z,10.66
2023-01-09T20:30:50.170Z,10.46
2023-01-09T20:31:53.222Z,11.77
2023-01-09T20:32:56.140Z,10.84
2023-01-09T20:33:59.489Z,10.46
2023-01-09T20:35:02.581Z,10.14
2023-01-09T20:36:06.315Z,10.16
2023-01-09T20:37:09.870Z,9.88
2023-01-09T20:38:13.693Z,10.42
2023-01-09T20:39:16.881Z,15.40
2023-01-09T20:40:19.814Z,12.07
2023-01-09T20:41:23.376Z,10.03
2023-01-09T20:42:26.425Z,8.58
2023-01-09T20:43:29.648Z,8.62
2023-01-09T20:44:32.729Z,9.56
2023-01-09T20:45:36.200Z,8.95
2023-01-09T20:46:41.453Z,9.38
2023-01-09T20:47:44.956Z,9.22
2023-01-09T20:48:48.903Z,8.41
2023-01-09T20:49:51.961Z,9.04
2023-01-09T20:50:55.367Z,9.62
2023-01-09T20:51:58.469Z,9.04
2023-01-09T20:53:02.196Z,8.43
2023-01-09T20:54:05.206Z,8.80
2023-01-09T20:55:09.069Z,8.28
2023-01-09T20:56:12.748Z,9.02
2023-01-09T20:57:15.602Z,9.38
2023-01-09T20:58:18.759Z,10.01
2023-01-09T20:59:22.347Z,9.28
2023-01-09T21:00:27.479Z,9.47
2023-01-09T21:01:30.492Z,8.68
2023-01-09T21:02:35.232Z,9.51
2023-01-09T21:03:38.923Z,9.55
2023-01-09T21:04:42.098Z,8.48
2023-01-09T21:05:45.248Z,10.71
2023-01-09T21:06:50.047Z,9.18
2023-01-09T21:07:53.387Z,8.97
2023-01-09T21:08:56.455Z,9.74
2023-01-09T21:09:59.634Z,10.03
2023-01-09T21:11:03.126Z,9.01
2023-01-09T21:12:08.531Z,9.52
2023-01-09T21:13:11.771Z,9.46
2023-01-09T21:14:14.869Z,9.43
2023-01-09T21:15:19.202Z,8.57
2023-01-09T21:16:24.544Z,9.26
2023-01-09T21:17:28.596Z,8.17
2023-01-09T21:18:32.194Z,7.94
2023-01-09T21:19:35.312Z,7.53
2023-01-09T21:20:39.530Z,7.76
2023-01-09T21:21:42.753Z,7.28
2023-01-09T21:22:45.932Z,7.67
2023-01-09T21:23:51.447Z,7.53
2023-01-09T21:24:54.576Z,8.14
2023-01-09T21:25:58.982Z,7.54
2023-01-09T21:27:01.979Z,8.72
2023-01-09T21:28:06.064Z,7.58
2023-01-09T21:29:12.204Z,7.58
2023-01-09T21:30:15.731Z,6.97
2023-01-09T21:31:21.329Z,6.96
2023-01-09T21:32:24.528Z,7.37
2023-01-09T21:33:27.691Z,7.34